• Join FlightAware (Why Join?)
  • Login
  • US Flag 
09:13PM EST


 

Airport Tracker/Info


-or-


 

Live Flight TrackerFlight Track Log ✈ FDX1708 ✈ 13-Mar-2014 ✈ KIND - KSTL

Flight Track Log - Related Links

Times and Time Zones

All times are in EDT time to prevent confusion due to time zone crossing. See the FDX1708 flight status page for this flight to view local times or setup timezone preferences in your user account.

Time Position Orientation Groundspeed Altitude Reporting Facility
EDT Latitude Longitude Course Direction KTS MPH feet Rate Location/Type
04:55AM 39.7000 -86.3167 218° Southwest 168 193 1,500  Level Indianapolis TRACON
04:55AM 39.6833 -86.3333 218° Southwest 175 201 2,500 2,188 Climbing Indianapolis TRACON
04:56AM 39.6500 -86.4000 237° Southwest 252 290 5,000 2,691 Climbing Indianapolis TRACON
04:58AM 39.6292 -86.5022 255° West 251 289 8,600 2,672 Climbing Indianapolis Center
04:59AM 39.6131 -86.5944 257° West 255 293 11,100 2,529 Climbing Indianapolis Center
05:00AM 39.5872 -86.7286 256° West 309 356 13,700 2,479 Climbing Indianapolis Center
05:01AM 39.5642 -86.8511 256° West 340 391 16,100 2,262 Climbing Indianapolis Center
05:02AM 39.5397 -86.9783 256° West 358 412 18,300 2,066 Climbing Indianapolis Center
05:03AM 39.5144 -87.1103 256° West 370 426 20,300 1,983 Climbing Indianapolis Center
05:04AM 39.4875 -87.2453 256° West 383 441 22,300 1,785 Climbing Indianapolis Center
05:05AM 39.4606 -87.3856 256° West 396 456 23,900 836 Climbing Indianapolis Center
05:06AM 39.4317 -87.5283 255° West 407 468 24,000 49 Climbing Indianapolis Center
05:07AM 39.4039 -87.6692 256° West 407 468 24,000  Level Indianapolis Center
05:08AM 39.3750 -87.8108 255° West 407 468 24,000  Level Indianapolis Center
05:09AM 39.3464 -87.9403 254° West 407 468 24,000  Level Indianapolis Center
05:10AM 39.3047 -88.1108 253° West 408 470 24,000  Level Indianapolis Center
05:11AM 39.2736 -88.2506 254° West 408 470 24,000  Level Indianapolis Center
05:12AM 39.2400 -88.3917 253° West 408 470 24,000  Level Indianapolis Center
05:13AM 39.2056 -88.5336 253° West 409 471 24,000  Level Indianapolis Center
05:14AM 39.1717 -88.6756 253° West 409 471 24,000  Level Indianapolis Center
05:15AM 39.1375 -88.8164 253° West 409 471 24,000 -148 Level Indianapolis Center
05:16AM 39.1039 -88.9553 253° West 409 471 23,700 -1,328 Descending Indianapolis Center
05:17AM 39.0706 -89.0956 253° West 409 471 21,300 -2,557 Descending Indianapolis Center
05:18AM 39.0350 -89.2297 251° West 400 460 18,500 -2,331 Descending Indianapolis Center
05:19AM 39.0061 -89.3517 253° West 369 425 16,600 -1,791 Descending Indianapolis Center
05:20AM 38.9747 -89.4708 251° West 325 374 14,500 -1,378 Descending Kansas City Center
05:21AM 38.9344 -89.5669 242° Southwest 306 352 13,500 -1,230 Descending Kansas City Center
05:22AM 38.8944 -89.6547 240° Southwest 290 334 12,000 -1,488 Descending Kansas City Center
05:23AM 38.8494 -89.7592 241° Southwest 285 328 10,500 -1,736 Descending Kansas City Center
05:24AM 38.8131 -89.8425 241° Southwest 273 314 8,500 -1,686 Descending Kansas City Center
05:25AM 38.7775 -89.9203 240° Southwest 260 299 7,100 -1,388 Descending Kansas City Center
05:26AM 38.7431 -89.9997 241° Southwest 255 293 5,700 -1,091 Descending Kansas City Center
05:27AM 38.7092 -90.0753 240° Southwest 253 291 4,900 -793 Descending Kansas City Center
05:28AM 38.6800 -90.1411 240° Southwest 233 268 4,100 -744 Descending Kansas City Center
05:29AM 38.6683 -90.1958 255° West 199 229 3,400 -694 Descending Kansas City Center
05:30AM 38.6875 -90.2372 301° West 157 181 2,700 -744 Descending Kansas City Center
05:31AM 38.7075 -90.2764 303° West 141 162 1,900 -793 Descending Kansas City Center
05:32AM 38.7267 -90.3150 302° West 134 154 1,100 -645 Descending Kansas City Center
05:33AM 38.7478 -90.3564 303° West 134 154 600 -500 Descending Kansas City Center